DLH274 EDDS-EDDN
Flight info
| Callsign | DLH274 |
|---|---|
| Flight time | 0h 28m |
| Altitude | 21000 |
| Route | DKB9B/25 DKB N869 LETKU LETKU1V |
| Aircraft | A320/M-SDE3FGHIRWY/LB1 |
Departure
| Time | 2026-05-06 18:44 |
|---|---|
| Airport | Stuttgart Airport (EDDS) |
Arrival
| Time | 2026-05-06 19:12 |
|---|---|
| Airport | Nuremberg Airport (EDDN) |
| Time | Latitude | Longitude | Altitude | Speed | Heading |
|---|---|---|---|---|---|
| 2026-05-06 18:09 | 48.69094 | 9.20170 | 1289 ft | 0 kts | 343° |
| 2026-05-06 18:34 | 48.69093 | 9.20171 | 1285 ft | 2 kts | 343° |
| 2026-05-06 18:34 | 48.69068 | 9.20181 | 1294 ft | 4 kts | 349° |
| 2026-05-06 18:34 | 48.69042 | 9.20186 | 1288 ft | 4 kts | 2° |
| 2026-05-06 18:35 | 48.69017 | 9.20178 | 1288 ft | 4 kts | 43° |
| 2026-05-06 18:35 | 48.69010 | 9.20165 | 1288 ft | 0 kts | 73° |
| 2026-05-06 18:37 | 48.69011 | 9.20173 | 1288 ft | 5 kts | 73° |
| 2026-05-06 18:37 | 48.69037 | 9.20310 | 1290 ft | 10 kts | 77° |
| 2026-05-06 18:38 | 48.69060 | 9.20435 | 1285 ft | 8 kts | 75° |
| 2026-05-06 18:38 | 48.69024 | 9.20530 | 1288 ft | 14 kts | 134° |
| 2026-05-06 18:38 | 48.68959 | 9.20659 | 1288 ft | 17 kts | 101° |
| 2026-05-06 18:38 | 48.68991 | 9.20849 | 1291 ft | 21 kts | 74° |
| 2026-05-06 18:39 | 48.69032 | 9.21075 | 1285 ft | 24 kts | 75° |
| 2026-05-06 18:39 | 48.69082 | 9.21329 | 1288 ft | 26 kts | 73° |
| 2026-05-06 18:39 | 48.69133 | 9.21591 | 1288 ft | 22 kts | 74° |
| 2026-05-06 18:40 | 48.69226 | 9.22083 | 1290 ft | 26 kts | 73° |
| 2026-05-06 18:40 | 48.69277 | 9.22353 | 1285 ft | 27 kts | 74° |
| 2026-05-06 18:40 | 48.69330 | 9.22639 | 1285 ft | 29 kts | 73° |
| 2026-05-06 18:40 | 48.69385 | 9.22935 | 1289 ft | 30 kts | 74° |
| 2026-05-06 18:41 | 48.69443 | 9.23241 | 1287 ft | 31 kts | 73° |
| 2026-05-06 18:41 | 48.69506 | 9.23553 | 1285 ft | 31 kts | 75° |
| 2026-05-06 18:41 | 48.69566 | 9.23873 | 1285 ft | 32 kts | 72° |
| 2026-05-06 18:41 | 48.69610 | 9.24103 | 1290 ft | 14 kts | 77° |
| 2026-05-06 18:42 | 48.69584 | 9.24228 | 1288 ft | 12 kts | 117° |
| 2026-05-06 18:42 | 48.69523 | 9.24302 | 1286 ft | 11 kts | 159° |
| 2026-05-06 18:42 | 48.69449 | 9.24329 | 1287 ft | 14 kts | 173° |
| 2026-05-06 18:42 | 48.69378 | 9.24247 | 1287 ft | 11 kts | 249° |
| 2026-05-06 18:43 | 48.69376 | 9.24241 | 1288 ft | 0 kts | 249° |
| 2026-05-06 18:43 | 48.69367 | 9.24200 | 1286 ft | 19 kts | 252° |
| 2026-05-06 18:43 | 48.69272 | 9.23707 | 1287 ft | 87 kts | 254° |
| 2026-05-06 18:43 | 48.69034 | 9.22479 | 1291 ft | 153 kts | 252° |
| 2026-05-06 18:44 | 48.68711 | 9.20814 | 1813 ft | 169 kts | 253° |
| 2026-05-06 18:44 | 48.68397 | 9.19121 | 2672 ft | 167 kts | 253° |
| 2026-05-06 18:44 | 48.68052 | 9.17330 | 3166 ft | 189 kts | 254° |
| 2026-05-06 18:44 | 48.67655 | 9.15298 | 3674 ft | 213 kts | 253° |
| 2026-05-06 18:45 | 48.67219 | 9.13080 | 4486 ft | 225 kts | 254° |
| 2026-05-06 18:45 | 48.66982 | 9.10739 | 4897 ft | 231 kts | 278° |
| 2026-05-06 18:45 | 48.67647 | 9.08540 | 5014 ft | 235 kts | 304° |
| 2026-05-06 18:45 | 48.68788 | 9.06754 | 5027 ft | 240 kts | 325° |
| 2026-05-06 18:46 | 48.70415 | 9.05845 | 5035 ft | 261 kts | 342° |
| 2026-05-06 18:46 | 48.72179 | 9.05082 | 5035 ft | 264 kts | 339° |
| 2026-05-06 18:46 | 48.73967 | 9.04337 | 5030 ft | 268 kts | 349° |
| 2026-05-06 18:46 | 48.75841 | 9.04402 | 5032 ft | 274 kts | 9° |
| 2026-05-06 18:47 | 48.77612 | 9.05501 | 5032 ft | 278 kts | 31° |
| 2026-05-06 18:47 | 48.79018 | 9.07523 | 5033 ft | 282 kts | 52° |
| 2026-05-06 18:47 | 48.80156 | 9.09954 | 5036 ft | 284 kts | 54° |
| 2026-05-06 18:47 | 48.81311 | 9.12447 | 5666 ft | 290 kts | 54° |
| 2026-05-06 18:48 | 48.82460 | 9.14930 | 6832 ft | 287 kts | 54° |
| 2026-05-06 18:48 | 48.83615 | 9.17423 | 7831 ft | 291 kts | 55° |
| 2026-05-06 18:48 | 48.84787 | 9.19950 | 8804 ft | 295 kts | 55° |
| 2026-05-06 18:48 | 48.85976 | 9.22510 | 9775 ft | 299 kts | 54° |
| 2026-05-06 18:49 | 48.87196 | 9.25147 | 10404 ft | 315 kts | 55° |
| 2026-05-06 18:49 | 48.88507 | 9.27982 | 10754 ft | 339 kts | 55° |
| 2026-05-06 18:49 | 48.89899 | 9.30991 | 11293 ft | 354 kts | 55° |
| 2026-05-06 18:49 | 48.91236 | 9.34116 | 12034 ft | 361 kts | 62° |
| 2026-05-06 18:50 | 48.92260 | 9.37637 | 12820 ft | 366 kts | 70° |
| 2026-05-06 18:50 | 48.93199 | 9.41255 | 13624 ft | 370 kts | 70° |
| 2026-05-06 18:50 | 48.94142 | 9.44902 | 13903 ft | 370 kts | 70° |
| 2026-05-06 18:50 | 48.95085 | 9.48548 | 13993 ft | 370 kts | 70° |
| 2026-05-06 18:51 | 48.96028 | 9.52196 | 14013 ft | 370 kts | 70° |
| 2026-05-06 18:51 | 48.96966 | 9.55832 | 14008 ft | 370 kts | 70° |
| 2026-05-06 18:51 | 48.97907 | 9.59478 | 14010 ft | 370 kts | 70° |
| 2026-05-06 18:51 | 48.98848 | 9.63118 | 14008 ft | 369 kts | 70° |
| 2026-05-06 18:52 | 48.99786 | 9.66759 | 14012 ft | 369 kts | 70° |
| 2026-05-06 18:52 | 49.00724 | 9.70404 | 14002 ft | 369 kts | 70° |
| 2026-05-06 18:52 | 49.01662 | 9.74049 | 14000 ft | 371 kts | 70° |
| 2026-05-06 18:52 | 49.02606 | 9.77730 | 14008 ft | 373 kts | 70° |
| 2026-05-06 18:53 | 49.03546 | 9.81414 | 14004 ft | 373 kts | 70° |
| 2026-05-06 18:53 | 49.04483 | 9.85097 | 14002 ft | 373 kts | 70° |
| 2026-05-06 18:53 | 49.05421 | 9.88778 | 14004 ft | 373 kts | 70° |
| 2026-05-06 18:53 | 49.06347 | 9.92415 | 14003 ft | 373 kts | 70° |
| 2026-05-06 18:54 | 49.07284 | 9.96099 | 14009 ft | 373 kts | 70° |
| 2026-05-06 18:54 | 49.08219 | 9.99787 | 14008 ft | 373 kts | 70° |
| 2026-05-06 18:54 | 49.09154 | 10.03473 | 14008 ft | 372 kts | 70° |
| 2026-05-06 18:54 | 49.10087 | 10.07155 | 14013 ft | 372 kts | 70° |
| 2026-05-06 18:55 | 49.11015 | 10.10835 | 14011 ft | 372 kts | 70° |
| 2026-05-06 18:55 | 49.11941 | 10.14517 | 14020 ft | 372 kts | 70° |
| 2026-05-06 18:55 | 49.12866 | 10.18202 | 14020 ft | 372 kts | 70° |
| 2026-05-06 18:55 | 49.13840 | 10.21851 | 14016 ft | 373 kts | 64° |
| 2026-05-06 18:56 | 49.15243 | 10.25193 | 14027 ft | 375 kts | 51° |
| 2026-05-06 18:56 | 49.17039 | 10.28096 | 14037 ft | 376 kts | 45° |
| 2026-05-06 18:56 | 49.18882 | 10.30935 | 14031 ft | 376 kts | 45° |
| 2026-05-06 18:56 | 49.20721 | 10.33781 | 14041 ft | 376 kts | 46° |
| 2026-05-06 18:57 | 49.22556 | 10.36637 | 14022 ft | 376 kts | 46° |
| 2026-05-06 18:57 | 49.24351 | 10.39525 | 13864 ft | 370 kts | 52° |
| 2026-05-06 18:57 | 49.25579 | 10.42932 | 13384 ft | 364 kts | 73° |
| 2026-05-06 18:57 | 49.26074 | 10.46703 | 12917 ft | 361 kts | 84° |
| 2026-05-06 18:58 | 49.26410 | 10.50504 | 12819 ft | 361 kts | 84° |
| 2026-05-06 18:58 | 49.26737 | 10.54336 | 12843 ft | 362 kts | 84° |
| 2026-05-06 18:58 | 49.27048 | 10.58161 | 12842 ft | 362 kts | 84° |
| 2026-05-06 18:58 | 49.27351 | 10.61936 | 12842 ft | 362 kts | 84° |
| 2026-05-06 18:59 | 49.27657 | 10.65755 | 12841 ft | 361 kts | 84° |
| 2026-05-06 18:59 | 49.27966 | 10.69626 | 12841 ft | 361 kts | 84° |
| 2026-05-06 18:59 | 49.28271 | 10.73392 | 12839 ft | 361 kts | 84° |
| 2026-05-06 18:59 | 49.28599 | 10.77254 | 12804 ft | 360 kts | 84° |
| 2026-05-06 19:00 | 49.28921 | 10.81029 | 12326 ft | 356 kts | 84° |
| 2026-05-06 19:00 | 49.29233 | 10.84735 | 11824 ft | 354 kts | 84° |
| 2026-05-06 19:00 | 49.29545 | 10.88510 | 11324 ft | 352 kts | 84° |
| 2026-05-06 19:00 | 49.29745 | 10.90966 | 10995 ft | 350 kts | 84° |
| 2026-05-06 19:01 | 49.30138 | 10.95890 | 10340 ft | 347 kts | 84° |
| 2026-05-06 19:01 | 49.30416 | 10.99473 | 10109 ft | 336 kts | 84° |
| 2026-05-06 19:01 | 49.30685 | 11.02961 | 9981 ft | 322 kts | 84° |
| 2026-05-06 19:01 | 49.30944 | 11.06310 | 9863 ft | 310 kts | 84° |
| 2026-05-06 19:02 | 49.31192 | 11.09541 | 9659 ft | 301 kts | 84° |
| 2026-05-06 19:02 | 49.31434 | 11.12709 | 9303 ft | 298 kts | 84° |
| 2026-05-06 19:02 | 49.31668 | 11.15854 | 8908 ft | 296 kts | 84° |
| 2026-05-06 19:02 | 49.31898 | 11.18975 | 8501 ft | 294 kts | 85° |
| 2026-05-06 19:03 | 49.32142 | 11.22064 | 8140 ft | 290 kts | 84° |
| 2026-05-06 19:03 | 49.32389 | 11.25123 | 7733 ft | 288 kts | 84° |
| 2026-05-06 19:03 | 49.32627 | 11.28131 | 7312 ft | 287 kts | 84° |
| 2026-05-06 19:03 | 49.32859 | 11.31157 | 6911 ft | 285 kts | 84° |
| 2026-05-06 19:04 | 49.33091 | 11.34210 | 6472 ft | 285 kts | 84° |
| 2026-05-06 19:04 | 49.33311 | 11.37172 | 6072 ft | 282 kts | 84° |
| 2026-05-06 19:04 | 49.33523 | 11.40155 | 5635 ft | 281 kts | 84° |
| 2026-05-06 19:04 | 49.33917 | 11.43067 | 5183 ft | 279 kts | 65° |
| 2026-05-06 19:05 | 49.35058 | 11.45410 | 4755 ft | 274 kts | 36° |
| 2026-05-06 19:05 | 49.36727 | 11.46727 | 4363 ft | 268 kts | 17° |
| 2026-05-06 19:05 | 49.38462 | 11.47592 | 4225 ft | 255 kts | 14° |
| 2026-05-06 19:05 | 49.40135 | 11.48401 | 4108 ft | 242 kts | 14° |
| 2026-05-06 19:06 | 49.41707 | 11.49139 | 4005 ft | 229 kts | 9° |
| 2026-05-06 19:06 | 49.43172 | 11.49029 | 4007 ft | 208 kts | 334° |
| 2026-05-06 19:06 | 49.44358 | 11.47834 | 4012 ft | 204 kts | 317° |
| 2026-05-06 19:06 | 49.45407 | 11.46362 | 4012 ft | 204 kts | 309° |
| 2026-05-06 19:07 | 49.46124 | 11.44544 | 4009 ft | 193 kts | 287° |
| 2026-05-06 19:07 | 49.46318 | 11.43220 | 4005 ft | 184 kts | 278° |
| 2026-05-06 19:07 | 49.46569 | 11.40738 | 4011 ft | 174 kts | 278° |
| 2026-05-06 19:07 | 49.46754 | 11.38920 | 4009 ft | 171 kts | 279° |
| 2026-05-06 19:08 | 49.46938 | 11.37115 | 4014 ft | 171 kts | 279° |
| 2026-05-06 19:08 | 49.47120 | 11.35320 | 4046 ft | 175 kts | 278° |
| 2026-05-06 19:08 | 49.47245 | 11.34081 | 4029 ft | 174 kts | 278° |
| 2026-05-06 19:08 | 49.47428 | 11.32266 | 3934 ft | 171 kts | 279° |
| 2026-05-06 19:09 | 49.47609 | 11.30470 | 3752 ft | 169 kts | 279° |
| 2026-05-06 19:09 | 49.47787 | 11.28699 | 3546 ft | 167 kts | 279° |
| 2026-05-06 19:09 | 49.47963 | 11.26948 | 3324 ft | 164 kts | 279° |
| 2026-05-06 19:09 | 49.48138 | 11.25212 | 3112 ft | 164 kts | 279° |
| 2026-05-06 19:10 | 49.48320 | 11.23388 | 2876 ft | 179 kts | 278° |
| 2026-05-06 19:10 | 49.48506 | 11.21533 | 2631 ft | 171 kts | 278° |
| 2026-05-06 19:10 | 49.48680 | 11.19792 | 2408 ft | 160 kts | 278° |
| 2026-05-06 19:10 | 49.48858 | 11.18009 | 2182 ft | 166 kts | 278° |
| 2026-05-06 19:11 | 49.49025 | 11.16326 | 1968 ft | 153 kts | 279° |
| 2026-05-06 19:11 | 49.49181 | 11.14759 | 1756 ft | 144 kts | 278° |
| 2026-05-06 19:11 | 49.49329 | 11.13272 | 1562 ft | 139 kts | 278° |
| 2026-05-06 19:11 | 49.49474 | 11.11803 | 1368 ft | 139 kts | 279° |
| 2026-05-06 19:12 | 49.49619 | 11.10347 | 1200 ft | 137 kts | 279° |
| 2026-05-06 19:12 | 49.49760 | 11.08917 | 1052 ft | 129 kts | 278° |
| 2026-05-06 19:12 | 49.49879 | 11.07709 | 1025 ft | 77 kts | 278° |
| 2026-05-06 19:12 | 49.49930 | 11.07198 | 1024 ft | 30 kts | 279° |
| 2026-05-06 19:13 | 49.49944 | 11.07064 | 1024 ft | 2 kts | 279° |
| 2026-05-06 19:13 | 49.49936 | 11.07033 | 1024 ft | 8 kts | 220° |
| 2026-05-06 19:13 | 49.49838 | 11.07038 | 1021 ft | 13 kts | 162° |
| 2026-05-06 19:13 | 49.49818 | 11.07049 | 1021 ft | 0 kts | 160° |
| 2026-05-06 19:15 | 49.49775 | 11.07079 | 1021 ft | 15 kts | 145° |
| 2026-05-06 19:15 | 49.49731 | 11.07207 | 1022 ft | 16 kts | 124° |
| 2026-05-06 19:16 | 49.49665 | 11.07221 | 1020 ft | 7 kts | 186° |
| 2026-05-06 19:16 | 49.49639 | 11.07244 | 1023 ft | 6 kts | 111° |
| 2026-05-06 19:16 | 49.49625 | 11.07347 | 1025 ft | 13 kts | 99° |
| 2026-05-06 19:16 | 49.49608 | 11.07519 | 1025 ft | 17 kts | 98° |
| 2026-05-06 19:17 | 49.49591 | 11.07693 | 1027 ft | 15 kts | 98° |
| 2026-05-06 19:17 | 49.49589 | 11.07716 | 1024 ft | 6 kts | 98° |
| 2026-05-06 19:17 | 49.49561 | 11.07800 | 1025 ft | 3 kts | 189° |
| 2026-05-06 19:17 | 49.49537 | 11.07795 | 1026 ft | 7 kts | 188° |
| 2026-05-06 19:18 | 49.49515 | 11.07790 | 1026 ft | 0 kts | 188° |